DAAGLXGB

Guest
Details From DAAG - Alger Houari Boumediene
To LXGB - Gibraltar
Flight Number -
Tags decoded
Created
Modified
Stats Distance 439 nm / 812 km
Max Altitude 0 ft / 0 m
Waypoints 4
Social Downloads 1
Likes 0
Share VATSIM

Download

Looking for another format? Having issues loading an existing format? Contact us
Advertisement - Login to hide

Notes

Requested: DAAG CELBA XAVIR VICTR LXGB

Route

DAAG CELBA XAVIR LXGB

ID Type Via Altitude Latitude Longitude Leg Dist Tot Dist Heading (true) Name
O DAAG APT - 0 ft / 0 m 36.69752˚ 3.21308˚ - 0 nm - Alger Houari Boumediene
CELBA FIX - 0 ft / 0 m 37.12537˚ 2.90833˚ 29 nm 29 nm 330° / 330° -
XAVIR FIX - 0 ft / 0 m 36.00415˚ -5.24306˚ 398 nm 428 nm 263° / 258° -
O LXGB APT - 0 ft / 0 m 36.15121˚ -5.34966˚ 10 nm 438 nm 330° / 330° Gibraltar

Altitude Profile

Advertisement - Login to hide

Weather


0- 5 10 15 20 25 30 35+ Temperature / ° C

Clouds and Precipitation
Forecast for 2018-01-24 00:00 UTC. Updated 37 minutes ago

Ground ~20,000 ft ~40,000 ft Winds

DAAG

Details ICAO DAAG (ALG)
Name Alger Houari Boumediene
Region Algeria
Timezone Africa/Algiers (UTC+1.0)
Stats Elevation 82 ft / 25 m (AMSL)
Location 36.697521° 3.213079°
Runways 2
Magnetic Variation 1.069° E

METAR

DAAG 232130Z 00000KT 4500 BR FEW016 09/09 Q1028

Decode

TAF

TAF DAAG 231700Z 2318/2418 VRB02KT CAVOK PROB40 TEMPO 2320/2404 3000 BR BKN015 TEMPO 2412/2416 05010KT

Decode

Departure Runways

ID Width Length Bearing (true) Bearing (mag) Surface Threshold Offset Overrun Length
05 197 ft / 60 m 11,459 ft / 3,493 m 52.87° 51.80° Asphalt 0 ft / 0 m 0 ft / 0 m
09 148 ft / 45 m 11,442 ft / 3,487 m 91.75° 90.68° Asphalt 0 ft / 0 m 1,017 ft / 310 m
23 197 ft / 60 m 11,459 ft / 3,493 m 232.89° 231.82° Asphalt 0 ft / 0 m 0 ft / 0 m
27 148 ft / 45 m 11,442 ft / 3,487 m 271.78° 270.71° Asphalt 0 ft / 0 m 0 ft / 0 m

LXGB

Details ICAO LXGB (GIB)
Name Gibraltar
Region Gibralter
Timezone Europe/Gibraltar (UTC+1.0)
Stats Elevation 15 ft / 5 m (AMSL)
Location 36.151209° -5.349664°
Runways 1
Magnetic Variation 1.110° W

METAR

LXGB 232050Z AUTO 04002KT 9999 // NCD 14/13 Q1027

Decode

TAF

Not found

Destination Runways

ID Width Length Bearing (true) Bearing (mag) Surface Threshold Offset Overrun Length
27 151 ft / 46 m 5,992 ft / 1,826 m 267.56° 268.67° Asphalt 367 ft / 112 m 89 ft / 27 m
9 151 ft / 46 m 5,992 ft / 1,826 m 87.54° 88.65° Asphalt 299 ft / 91 m 52 ft / 16 m

Popular Alternatives